Belgorod, Russia
Current Conditions -  °F | °C
As of 4:00 PM on Thursday 23 Oct 2014 (Local Time) from UUOB Reporting Station
Clear Clear  
Wind Chill: 21°   Ceiling: Unl
Heat Index: 30°   Visibility: 6mi
Dew Point: 18°   Wind: 11mph
Humidity: 60%   Direction: 40°NE
Pressure: 30.18"   Gusts: 18mph
Location:  50.61°N, 36.59°E
Report Text: UUOB 231300Z 04005G08MPS CAVOK M01/M08 Q1022 11090060 NOSIG
Loading
Personal Weather Stations






























Interactive Weather Map
Tropical Storm Tracking
New forecast layout! Learn more

10-Day Weather Forecast

Advertisements
Track Severe Weather on mobile